createdAt,value
2023-05-21T00:00:31.074Z,4.70
2023-05-21T00:04:53.020Z,4.30
2023-05-21T00:08:56.943Z,4.90
2023-05-21T00:13:01.648Z,5.10
2023-05-21T00:17:04.559Z,4.40
2023-05-21T00:21:07.514Z,3.90
2023-05-21T00:25:11.521Z,4.10
2023-05-21T00:29:13.840Z,4.10
2023-05-21T00:33:16.917Z,4.50
2023-05-21T00:37:18.997Z,4.70
2023-05-21T00:41:25.089Z,4.90
2023-05-21T00:45:29.344Z,4.00
2023-05-21T00:49:32.939Z,4.90
2023-05-21T00:53:35.968Z,4.30
2023-05-21T00:57:40.128Z,4.90
2023-05-21T01:01:47.803Z,4.80
2023-05-21T01:05:52.981Z,4.70
2023-05-21T01:09:55.944Z,4.80
2023-05-21T01:13:58.920Z,4.70
2023-05-21T01:18:01.294Z,4.70
2023-05-21T01:22:06.855Z,4.70
2023-05-21T01:26:12.524Z,4.70
2023-05-21T01:30:19.734Z,4.70
2023-05-21T01:34:32.385Z,4.70
2023-05-21T01:38:49.275Z,5.30
2023-05-21T01:42:53.750Z,4.90
2023-05-21T01:46:56.810Z,4.80
2023-05-21T01:51:03.087Z,5.30
2023-05-21T01:55:10.730Z,4.60
2023-05-21T01:59:13.469Z,4.40
2023-05-21T02:03:16.073Z,5.20
2023-05-21T02:07:19.916Z,4.50
2023-05-21T02:11:24.229Z,3.90
2023-05-21T02:15:27.543Z,4.60
2023-05-21T02:19:31.033Z,4.40
2023-05-21T02:23:33.358Z,4.60
2023-05-21T02:27:39.471Z,4.10
2023-05-21T02:31:41.610Z,4.80
2023-05-21T02:35:46.420Z,5.30
2023-05-21T02:39:51.356Z,5.10
2023-05-21T02:43:54.064Z,5.40
2023-05-21T02:47:58.578Z,5.20
2023-05-21T02:52:02.291Z,6.10
2023-05-21T02:56:06.206Z,6.00
2023-05-21T03:00:10.920Z,5.00
2023-05-21T03:04:14.558Z,5.50
2023-05-21T03:08:17.855Z,5.40
2023-05-21T03:12:21.452Z,4.70
2023-05-21T03:16:23.499Z,4.30
2023-05-21T03:20:28.785Z,4.50
2023-05-21T03:24:32.687Z,4.40
2023-05-21T03:28:36.547Z,4.60
2023-05-21T03:32:41.404Z,3.70
2023-05-21T03:36:44.340Z,4.00
2023-05-21T03:40:49.403Z,3.60
2023-05-21T03:44:52.586Z,4.00
2023-05-21T03:49:17.883Z,3.80
2023-05-21T03:53:22.170Z,3.50
2023-05-21T03:57:24.764Z,3.60
2023-05-21T04:01:27.919Z,3.00
2023-05-21T04:05:31.056Z,4.10
2023-05-21T04:09:35.412Z,3.10
2023-05-21T04:13:39.843Z,3.70
2023-05-21T04:17:42.381Z,3.10
2023-05-21T04:21:45.598Z,3.90
2023-05-21T04:25:51.574Z,3.60
2023-05-21T04:29:59.098Z,2.90
2023-05-21T04:34:02.909Z,2.90
2023-05-21T04:38:08.147Z,2.90
2023-05-21T04:42:11.350Z,2.80
2023-05-21T04:46:15.340Z,3.30
2023-05-21T04:50:18.336Z,3.20
2023-05-21T04:54:21.289Z,3.10
2023-05-21T04:58:23.856Z,3.00
2023-05-21T05:02:26.867Z,2.90
2023-05-21T05:06:29.610Z,3.00
2023-05-21T05:10:31.855Z,2.80
2023-05-21T05:14:34.799Z,2.90
2023-05-21T05:18:40.539Z,2.90
2023-05-21T05:22:42.939Z,3.50
2023-05-21T05:26:45.979Z,2.90
2023-05-21T05:30:49.532Z,3.10
2023-05-21T05:34:57.179Z,2.60
2023-05-21T05:38:59.719Z,2.60
2023-05-21T05:43:03.240Z,2.60
2023-05-21T05:47:10.412Z,2.90
2023-05-21T05:51:17.113Z,2.50
2023-05-21T05:55:21.960Z,2.60
2023-05-21T05:59:28.369Z,3.00
2023-05-21T06:03:33.217Z,2.50
2023-05-21T06:07:43.524Z,2.50
2023-05-21T06:11:45.997Z,3.10
2023-05-21T06:15:53.010Z,3.20
2023-05-21T06:19:56.531Z,2.60
2023-05-21T06:24:00.254Z,2.50
2023-05-21T06:28:04.190Z,3.10
2023-05-21T06:32:08.475Z,2.40
2023-05-21T06:36:12.410Z,2.90
2023-05-21T06:40:15.837Z,2.50
2023-05-21T06:44:21.950Z,2.60
2023-05-21T06:48:53.475Z,2.60
2023-05-21T06:52:56.568Z,2.30
2023-05-21T06:56:59.060Z,2.30
2023-05-21T07:01:06.971Z,2.50
2023-05-21T07:09:12.679Z,2.60
2023-05-21T07:13:15.917Z,2.30
2023-05-21T07:17:18.143Z,2.30
2023-05-21T07:21:22.217Z,2.60
2023-05-21T07:25:26.617Z,2.70
2023-05-21T07:29:29.812Z,2.60
2023-05-21T07:33:32.142Z,2.70
2023-05-21T07:37:34.568Z,2.80
2023-05-21T07:41:38.409Z,2.60
2023-05-21T07:45:43.650Z,2.10
2023-05-21T07:49:46.895Z,2.30
2023-05-21T07:53:49.350Z,2.30
2023-05-21T07:57:53.609Z,2.20
2023-05-21T08:02:01.703Z,2.70
2023-05-21T08:06:04.603Z,2.20
2023-05-21T08:10:11.977Z,2.60
2023-05-21T08:14:15.362Z,2.00
2023-05-21T08:18:18.441Z,2.40
2023-05-21T08:22:21.612Z,2.30
2023-05-21T08:26:26.971Z,2.50
2023-05-21T08:30:30.955Z,2.00
2023-05-21T08:34:34.604Z,1.70
2023-05-21T08:38:51.151Z,2.00
2023-05-21T08:43:07.151Z,2.60
2023-05-21T08:47:23.864Z,2.20
2023-05-21T08:51:29.085Z,2.00
2023-05-21T08:55:33.084Z,1.80
2023-05-21T08:59:37.708Z,2.10
2023-05-21T09:03:45.819Z,1.80
2023-05-21T09:08:06.614Z,2.00
2023-05-21T09:12:17.280Z,1.90
2023-05-21T09:16:20.839Z,1.80
2023-05-21T09:20:26.212Z,1.90
2023-05-21T09:24:35.783Z,2.30
2023-05-21T09:28:38.572Z,1.80
2023-05-21T09:32:41.700Z,1.60
2023-05-21T09:36:44.295Z,1.50
2023-05-21T09:40:46.715Z,2.00
2023-05-21T09:44:49.193Z,2.20
2023-05-21T09:48:51.392Z,2.80
2023-05-21T09:52:55.170Z,1.70
2023-05-21T09:56:57.385Z,1.60
2023-05-21T10:01:00.104Z,1.70
2023-05-21T10:05:05.174Z,2.00
2023-05-21T10:09:10.671Z,2.00
2023-05-21T10:17:23.117Z,1.90
2023-05-21T10:21:30.759Z,1.50
2023-05-21T10:25:33.205Z,2.10
2023-05-21T10:29:37.742Z,1.80
2023-05-21T10:33:42.549Z,2.20
2023-05-21T10:37:45.992Z,2.20
2023-05-21T10:42:20.566Z,2.10
2023-05-21T10:46:44.672Z,2.20
2023-05-21T10:51:12.362Z,2.50
2023-05-21T10:55:32.004Z,1.60
2023-05-21T10:59:45.435Z,2.30
2023-05-21T11:03:48.645Z,1.80
2023-05-21T11:07:58.359Z,2.10
2023-05-21T11:12:01.806Z,2.10
2023-05-21T11:16:06.693Z,1.60
2023-05-21T11:20:13.854Z,2.10
2023-05-21T11:24:20.450Z,1.90
2023-05-21T11:28:36.821Z,2.30
2023-05-21T11:32:40.739Z,1.60
2023-05-21T11:36:45.969Z,2.00
2023-05-21T11:40:54.845Z,1.70
2023-05-21T11:45:01.150Z,1.40
2023-05-21T11:49:03.711Z,2.20
2023-05-21T11:53:07.652Z,1.70
2023-05-21T11:57:10.334Z,1.60
2023-05-21T12:01:22.490Z,1.70
2023-05-21T12:05:26.616Z,1.70
2023-05-21T12:09:28.908Z,1.60
2023-05-21T12:13:31.694Z,1.80
2023-05-21T12:17:34.120Z,2.20
2023-05-21T12:21:36.503Z,1.50
2023-05-21T12:25:38.847Z,1.80
2023-05-21T12:29:45.158Z,1.50
2023-05-21T12:34:11.758Z,2.30
2023-05-21T12:38:19.145Z,1.30
2023-05-21T12:42:35.322Z,1.60
2023-05-21T12:47:01.229Z,1.70
2023-05-21T12:51:07.091Z,2.00
2023-05-21T12:55:16.842Z,1.80
2023-05-21T12:59:23.975Z,2.00
2023-05-21T13:03:52.926Z,1.80
2023-05-21T13:07:55.727Z,1.70
2023-05-21T13:11:58.486Z,1.60
2023-05-21T13:16:01.565Z,1.60
2023-05-21T13:20:18.393Z,1.70
2023-05-21T13:24:30.609Z,1.90
2023-05-21T13:28:32.940Z,2.10
2023-05-21T13:32:37.641Z,1.80
2023-05-21T13:36:41.910Z,1.90
2023-05-21T13:40:44.585Z,2.70
2023-05-21T13:44:50.243Z,1.70
2023-05-21T13:48:52.939Z,1.90
2023-05-21T13:52:55.236Z,1.60
2023-05-21T13:56:57.790Z,1.90
2023-05-21T14:01:03.187Z,2.20
2023-05-21T14:05:05.910Z,2.10
2023-05-21T14:09:08.261Z,2.30
2023-05-21T14:13:19.179Z,2.20
2023-05-21T14:17:22.187Z,1.80
2023-05-21T14:21:25.525Z,1.40
2023-05-21T14:25:27.685Z,1.80
2023-05-21T14:29:29.708Z,1.70
2023-05-21T14:33:32.443Z,1.80
2023-05-21T14:37:34.647Z,1.80
2023-05-21T14:41:39.098Z,1.70
2023-05-21T14:45:41.283Z,1.80
2023-05-21T14:49:43.429Z,1.90
2023-05-21T14:53:45.721Z,1.60
2023-05-21T14:57:54.602Z,1.90
2023-05-21T15:01:57.672Z,1.80
2023-05-21T15:06:00.841Z,2.40
2023-05-21T15:10:07.977Z,2.40
2023-05-21T15:14:11.357Z,1.50
2023-05-21T15:18:14.691Z,1.90
2023-05-21T15:22:16.934Z,2.20
2023-05-21T15:26:19.160Z,1.80
2023-05-21T15:30:21.998Z,2.10
2023-05-21T15:34:27.410Z,2.10
2023-05-21T15:38:29.675Z,1.80
2023-05-21T15:42:32.164Z,2.30
2023-05-21T15:46:34.457Z,2.10
2023-05-21T15:50:37.691Z,2.60
2023-05-21T15:54:39.937Z,2.00
2023-05-21T15:58:42.066Z,1.90
2023-05-21T16:02:44.397Z,2.40
2023-05-21T16:06:49.443Z,2.00
2023-05-21T16:10:54.187Z,2.80
2023-05-21T16:14:56.261Z,2.90
2023-05-21T16:18:58.379Z,2.50
2023-05-21T16:23:00.607Z,2.40
2023-05-21T16:27:02.890Z,2.10
2023-05-21T16:31:05.322Z,2.20
2023-05-21T16:35:07.564Z,2.70
2023-05-21T16:39:09.722Z,2.10
2023-05-21T16:43:11.936Z,2.10
2023-05-21T16:47:14.055Z,3.60
2023-05-21T16:51:16.190Z,2.10
2023-05-21T16:55:18.347Z,2.30
2023-05-21T16:59:20.429Z,2.70
2023-05-21T17:03:22.895Z,2.50
2023-05-21T17:07:28.269Z,2.00
2023-05-21T17:11:30.526Z,2.00
2023-05-21T17:15:32.831Z,2.30
2023-05-21T17:19:35.130Z,2.20
2023-05-21T17:23:37.362Z,2.10
2023-05-21T17:27:39.846Z,3.20
2023-05-21T17:31:42.002Z,2.50
2023-05-21T17:35:44.177Z,2.00
2023-05-21T17:39:46.286Z,2.60
2023-05-21T17:43:48.433Z,2.10
2023-05-21T17:47:50.584Z,2.30
2023-05-21T17:51:53.028Z,2.10
2023-05-21T17:55:55.300Z,1.90
2023-05-21T17:59:57.559Z,2.20
2023-05-21T18:03:59.800Z,2.40
2023-05-21T18:08:02.386Z,2.10
2023-05-21T18:12:06.468Z,1.70
2023-05-21T18:16:08.720Z,2.50
2023-05-21T18:20:11.565Z,2.10
2023-05-21T18:24:13.682Z,2.60
2023-05-21T18:28:15.974Z,3.50
2023-05-21T18:32:18.306Z,3.10
2023-05-21T18:36:20.566Z,2.60
2023-05-21T18:40:24.557Z,2.80
2023-05-21T18:44:26.851Z,2.90
2023-05-21T18:48:28.920Z,3.60
2023-05-21T18:52:30.964Z,3.30
2023-05-21T18:56:33.027Z,3.40
2023-05-21T19:00:39.138Z,3.50
2023-05-21T19:04:41.340Z,5.80
2023-05-21T19:08:45.712Z,6.60
2023-05-21T19:12:49.011Z,4.70
2023-05-21T19:16:51.050Z,4.50
2023-05-21T19:20:53.186Z,3.70
2023-05-21T19:24:55.362Z,3.80
2023-05-21T19:28:57.439Z,3.70
2023-05-21T19:32:59.555Z,3.20
2023-05-21T19:37:01.901Z,3.10
2023-05-21T19:41:04.155Z,3.30
2023-05-21T19:45:11.106Z,3.10
2023-05-21T19:49:15.333Z,3.40
2023-05-21T19:53:17.479Z,3.50
2023-05-21T19:57:19.780Z,3.50
2023-05-21T20:01:23.131Z,5.00
2023-05-21T20:05:25.360Z,4.50
2023-05-21T20:09:27.688Z,4.50
2023-05-21T20:13:29.939Z,4.30
2023-05-21T20:17:33.803Z,4.50
2023-05-21T20:21:36.041Z,3.80
2023-05-21T20:25:38.314Z,3.90
2023-05-21T20:29:42.461Z,3.70
2023-05-21T20:33:44.713Z,3.70
2023-05-21T20:37:47.225Z,4.00
2023-05-21T20:41:49.423Z,3.50
2023-05-21T20:45:58.970Z,3.70
2023-05-21T20:50:02.398Z,4.70
2023-05-21T20:54:05.107Z,5.10
2023-05-21T20:58:07.325Z,4.40
2023-05-21T21:02:12.097Z,3.90
2023-05-21T21:06:16.805Z,3.90
2023-05-21T21:10:19.076Z,4.40
2023-05-21T21:14:21.183Z,4.40
2023-05-21T21:18:23.575Z,4.40
2023-05-21T21:22:26.010Z,3.90
2023-05-21T21:26:28.148Z,3.80
2023-05-21T21:30:30.433Z,4.10
2023-05-21T21:34:32.493Z,6.70
2023-05-21T21:38:34.655Z,4.70
2023-05-21T21:42:36.702Z,4.50
2023-05-21T21:46:38.930Z,4.80
2023-05-21T21:50:41.288Z,4.90
2023-05-21T21:54:43.559Z,5.20
2023-05-21T21:58:45.775Z,4.80
2023-05-21T22:02:47.959Z,5.30
2023-05-21T22:06:51.406Z,4.50
2023-05-21T22:10:53.603Z,5.70
2023-05-21T22:14:57.247Z,6.60
2023-05-21T22:19:00.184Z,6.80
2023-05-21T22:23:02.389Z,6.10
2023-05-21T22:27:04.985Z,5.20
2023-05-21T22:31:07.601Z,5.30
2023-05-21T22:35:09.891Z,3.70
2023-05-21T22:39:12.066Z,5.70
2023-05-21T22:43:14.169Z,5.00
2023-05-21T22:47:16.411Z,5.00
2023-05-21T22:51:18.515Z,5.70
2023-05-21T22:55:20.642Z,5.30
2023-05-21T22:59:22.843Z,5.60
2023-05-21T23:03:25.007Z,6.20
2023-05-21T23:07:27.137Z,6.00
2023-05-21T23:11:29.254Z,5.70
2023-05-21T23:15:31.436Z,5.40
2023-05-21T23:19:33.601Z,6.10
2023-05-21T23:23:35.786Z,5.20
2023-05-21T23:27:37.895Z,4.90
2023-05-21T23:31:40.119Z,4.90
2023-05-21T23:35:42.355Z,5.60
2023-05-21T23:39:49.968Z,5.20
2023-05-21T23:43:52.051Z,5.10
2023-05-21T23:47:54.234Z,4.90
2023-05-21T23:51:56.368Z,4.20
2023-05-21T23:55:58.393Z,6.00
